createdAt,value
2022-08-17T00:00:34.570Z,99191.31
2022-08-17T00:05:43.768Z,99188.44
2022-08-17T00:10:46.691Z,99181.00
2022-08-17T00:15:48.611Z,99186.88
2022-08-17T00:20:50.403Z,99189.66
2022-08-17T00:25:53.456Z,99199.28
2022-08-17T00:30:55.349Z,99196.97
2022-08-17T00:35:58.567Z,99195.31
2022-08-17T00:41:13.153Z,99197.66
2022-08-17T00:46:16.857Z,99199.78
2022-08-17T00:51:41.887Z,99193.00
2022-08-17T00:56:47.961Z,99193.50
2022-08-17T01:01:50.672Z,99193.78
2022-08-17T01:06:53.264Z,99204.00
2022-08-17T01:11:54.953Z,99197.75
2022-08-17T01:16:56.698Z,99200.66
2022-08-17T01:22:12.967Z,99207.03
2022-08-17T01:27:16.125Z,99206.81
2022-08-17T01:32:20.267Z,99215.16
2022-08-17T01:37:35.500Z,99205.44
2022-08-17T01:42:44.640Z,99210.44
2022-08-17T01:47:46.420Z,99212.75
2022-08-17T01:52:51.727Z,99211.13
2022-08-17T01:57:53.760Z,99224.16
2022-08-17T02:02:55.474Z,99218.00
2022-08-17T02:08:00.448Z,99231.06
2022-08-17T02:13:04.504Z,99231.28
2022-08-17T02:18:06.779Z,99227.19
2022-08-17T02:23:10.642Z,99218.31
2022-08-17T02:28:12.453Z,99219.06
2022-08-17T02:33:14.549Z,99218.97
2022-08-17T02:38:17.463Z,99219.78
2022-08-17T02:43:20.782Z,99214.75
2022-08-17T02:48:30.627Z,99218.59
2022-08-17T02:53:36.120Z,99222.16
2022-08-17T02:58:38.256Z,99222.75
2022-08-17T03:03:40.884Z,99223.25
2022-08-17T03:08:42.548Z,99224.88
2022-08-17T03:13:44.219Z,99219.34
2022-08-17T03:18:46.073Z,99212.50
2022-08-17T03:23:47.833Z,99214.03
2022-08-17T03:28:56.229Z,99211.06
2022-08-17T03:33:57.936Z,99210.44
2022-08-17T03:39:00.516Z,99212.00
2022-08-17T03:44:02.496Z,99206.56
2022-08-17T03:49:25.048Z,99203.22
2022-08-17T03:54:45.204Z,99194.69
2022-08-17T03:59:47.666Z,99198.69
2022-08-17T04:04:53.895Z,99198.03
2022-08-17T04:09:55.752Z,99198.81
2022-08-17T04:14:57.452Z,99200.25
2022-08-17T04:19:59.107Z,99202.13
2022-08-17T04:25:05.392Z,99218.09
2022-08-17T04:30:07.724Z,99220.97
2022-08-17T04:35:09.662Z,99229.03
2022-08-17T04:40:30.660Z,99231.56
2022-08-17T04:45:32.740Z,99236.03
2022-08-17T04:50:36.522Z,99236.78
2022-08-17T04:55:41.943Z,99242.94
2022-08-17T05:00:44.039Z,99247.41
2022-08-17T05:05:51.276Z,99254.53
2022-08-17T05:10:53.008Z,99253.78
2022-08-17T05:16:02.203Z,99255.13
2022-08-17T05:21:04.470Z,99256.78
2022-08-17T05:26:07.892Z,99258.28
2022-08-17T05:31:14.071Z,99259.91
2022-08-17T05:36:41.657Z,99261.94
2022-08-17T05:41:37.743Z,99251.88
2022-08-17T05:46:43.540Z,99256.28
2022-08-17T05:51:51.132Z,99262.72
2022-08-17T05:57:02.657Z,99264.47
2022-08-17T06:02:18.909Z,99259.69
2022-08-17T06:07:22.831Z,99260.91
2022-08-17T06:12:24.440Z,99263.69
2022-08-17T06:17:28.307Z,99268.50
2022-08-17T06:22:35.894Z,99266.25
2022-08-17T06:27:42.922Z,99270.16
2022-08-17T06:32:48.163Z,99273.34
2022-08-17T06:38:17.311Z,99273.94
2022-08-17T06:43:46.167Z,99265.91
2022-08-17T06:49:07.506Z,99269.50
2022-08-17T06:54:25.472Z,99266.56
2022-08-17T06:59:55.279Z,99256.16
2022-08-17T07:05:01.801Z,99260.91
2022-08-17T07:10:03.792Z,99270.78
2022-08-17T07:15:16.666Z,99258.94
2022-08-17T07:20:22.498Z,99263.56
2022-08-17T07:25:25.103Z,99266.00
2022-08-17T07:30:49.872Z,99255.34
2022-08-17T07:35:52.940Z,99257.84
2022-08-17T07:41:04.923Z,99256.53
2022-08-17T07:46:34.261Z,99261.50
2022-08-17T07:51:40.902Z,99261.47
2022-08-17T07:56:50.396Z,99264.88
2022-08-17T08:01:57.407Z,99245.66
2022-08-17T08:07:11.303Z,99229.34
2022-08-17T08:12:24.772Z,99227.44
2022-08-17T08:17:44.840Z,99229.13
2022-08-17T08:22:56.285Z,99220.97
2022-08-17T08:28:30.027Z,99215.75
2022-08-17T08:33:57.529Z,99210.88
2022-08-17T08:39:08.917Z,99216.50
2022-08-17T08:44:59.719Z,99219.81
2022-08-17T08:50:05.390Z,99220.44
2022-08-17T08:55:32.349Z,99216.06
2022-08-17T09:00:40.623Z,99215.22
2022-08-17T09:06:03.742Z,99210.56
2022-08-17T09:11:17.375Z,99218.22
2022-08-17T09:16:37.925Z,99214.41
2022-08-17T09:21:54.553Z,99209.31
2022-08-17T09:27:13.505Z,99205.69
2022-08-17T09:32:24.807Z,99205.66
2022-08-17T09:38:03.935Z,99207.25
2022-08-17T09:43:17.550Z,99195.16
2022-08-17T09:53:37.386Z,99194.84
2022-08-17T09:59:03.896Z,99205.03
2022-08-17T10:04:29.497Z,99193.66
2022-08-17T10:09:59.365Z,99184.16
2022-08-17T10:15:34.668Z,99180.38
2022-08-17T10:20:48.449Z,99180.06
2022-08-17T10:26:14.524Z,99180.56
2022-08-17T10:31:42.686Z,99179.56
2022-08-17T10:36:59.149Z,99180.78
2022-08-17T10:42:32.172Z,99174.34
2022-08-17T10:48:06.076Z,99172.13
2022-08-17T10:53:08.420Z,99162.47
2022-08-17T10:58:22.088Z,99165.31
2022-08-17T11:03:25.588Z,99165.16
2022-08-17T11:08:57.553Z,99156.94
2022-08-17T11:14:17.593Z,99163.38
2022-08-17T11:19:44.779Z,99165.25
2022-08-17T11:24:51.467Z,99150.97
2022-08-17T11:30:01.820Z,99157.81
2022-08-17T11:35:22.281Z,99147.41
2022-08-17T11:40:43.183Z,99145.78
2022-08-17T11:46:13.664Z,99140.88
2022-08-17T11:51:34.199Z,99138.78
2022-08-17T11:56:42.517Z,99140.25
2022-08-17T12:01:46.987Z,99130.72
2022-08-17T12:06:57.015Z,99130.28
2022-08-17T12:12:31.371Z,99125.59
2022-08-17T12:17:41.183Z,99106.06
2022-08-17T12:23:09.651Z,99107.16
2022-08-17T12:28:23.873Z,99107.41
2022-08-17T12:33:28.775Z,99095.56
2022-08-17T12:38:34.750Z,99086.25
2022-08-17T12:43:36.566Z,99092.41
2022-08-17T12:48:38.256Z,99084.50
2022-08-17T12:53:42.434Z,99097.81
2022-08-17T12:58:54.475Z,99088.59
2022-08-17T13:03:59.789Z,99077.72
2022-08-17T13:09:14.779Z,99064.28
2022-08-17T13:14:18.634Z,99070.84
2022-08-17T13:19:40.038Z,99064.31
2022-08-17T13:24:53.281Z,99073.25
2022-08-17T13:30:01.442Z,99084.13
2022-08-17T13:35:32.835Z,99081.34
2022-08-17T13:40:52.238Z,99094.88
2022-08-17T13:46:06.939Z,99091.44
2022-08-17T13:51:23.505Z,99087.84
2022-08-17T13:56:33.374Z,99093.91
2022-08-17T14:01:53.585Z,99089.06
2022-08-17T14:07:00.601Z,99080.25
2022-08-17T14:12:04.735Z,99081.69
2022-08-17T14:17:07.908Z,99078.75
2022-08-17T14:22:18.265Z,99084.56
2022-08-17T14:27:21.143Z,99073.97
2022-08-17T14:32:26.722Z,99061.19
2022-08-17T14:37:29.961Z,99051.97
2022-08-17T14:42:33.553Z,99041.41
2022-08-17T14:47:36.976Z,99044.53
2022-08-17T14:52:42.367Z,99053.66
2022-08-17T14:57:45.062Z,99055.59
2022-08-17T15:02:53.841Z,99055.50
2022-08-17T15:07:55.864Z,99061.84
2022-08-17T15:12:58.009Z,99055.13
2022-08-17T15:18:00.034Z,99047.19
2022-08-17T15:23:02.237Z,99057.66
2022-08-17T15:28:04.187Z,99047.41
2022-08-17T15:33:05.848Z,99045.56
2022-08-17T15:38:12.091Z,99047.38
2022-08-17T15:43:26.453Z,99049.06
2022-08-17T15:48:40.822Z,99037.91
2022-08-17T15:53:45.489Z,99033.94
2022-08-17T15:58:48.585Z,99016.72
2022-08-17T16:04:06.809Z,99011.38
2022-08-17T16:09:09.218Z,99015.56
2022-08-17T16:14:10.852Z,99008.19
2022-08-17T16:19:16.295Z,99013.44
2022-08-17T16:24:17.962Z,99025.41
2022-08-17T16:29:21.444Z,99015.53
2022-08-17T16:34:23.285Z,99014.03
2022-08-17T16:39:27.498Z,99016.38
2022-08-17T16:44:30.696Z,99028.06
2022-08-17T16:49:36.902Z,99040.06
2022-08-17T16:54:43.763Z,99032.84
2022-08-17T16:59:50.348Z,99037.25
2022-08-17T17:05:14.495Z,99038.75
2022-08-17T17:10:20.273Z,99044.94
2022-08-17T17:15:28.307Z,99045.63
2022-08-17T17:20:40.500Z,99042.47
2022-08-17T17:26:11.629Z,99045.09
2022-08-17T17:31:17.840Z,99060.47
2022-08-17T17:36:19.461Z,99064.03
2022-08-17T17:41:47.302Z,99065.44
2022-08-17T17:46:54.513Z,99072.22
2022-08-17T17:52:10.055Z,99063.53
2022-08-17T17:57:24.625Z,99072.94
2022-08-17T18:02:47.418Z,99079.84
2022-08-17T18:08:22.013Z,99077.78
2022-08-17T18:14:02.256Z,99086.34
2022-08-17T18:19:03.892Z,99088.25
2022-08-17T18:24:10.579Z,99091.09
2022-08-17T18:29:21.260Z,99090.16
2022-08-17T18:39:47.117Z,99088.97
2022-08-17T18:44:52.995Z,99083.38
2022-08-17T18:50:24.082Z,99086.44
2022-08-17T18:55:31.440Z,99084.41
2022-08-17T19:00:38.409Z,99085.28
2022-08-17T19:05:45.118Z,99085.81
2022-08-17T19:10:50.558Z,99089.44
2022-08-17T19:16:11.937Z,99090.31
2022-08-17T19:21:22.913Z,99087.81
2022-08-17T19:26:54.199Z,99088.66
2022-08-17T19:31:58.635Z,99089.31
2022-08-17T19:37:06.977Z,99096.50
2022-08-17T19:42:47.337Z,99092.41
2022-08-17T19:48:11.699Z,99095.97
2022-08-17T19:53:54.181Z,99103.09
2022-08-17T19:59:13.314Z,99105.84
2022-08-17T20:04:32.792Z,99087.13
2022-08-17T20:09:34.644Z,99089.31
2022-08-17T20:14:53.567Z,99082.97
2022-08-17T20:20:07.584Z,99091.19
2022-08-17T20:25:30.998Z,99088.72
2022-08-17T20:30:38.045Z,99084.88
2022-08-17T20:35:59.770Z,99092.75
2022-08-17T20:41:04.476Z,99100.88
2022-08-17T20:46:30.268Z,99098.69
2022-08-17T20:52:07.763Z,99101.97
2022-08-17T20:57:14.185Z,99098.63
2022-08-17T21:02:21.855Z,99103.78
2022-08-17T21:07:29.408Z,99113.13
2022-08-17T21:13:21.889Z,99115.72
2022-08-17T21:18:38.797Z,99118.47
2022-08-17T21:24:01.144Z,99128.69
2022-08-17T21:29:31.358Z,99135.88
2022-08-17T21:34:38.939Z,99140.94
2022-08-17T21:39:41.401Z,99149.75
2022-08-17T21:44:49.079Z,99149.25
2022-08-17T21:49:55.136Z,99149.16
2022-08-17T21:55:02.349Z,99152.13
2022-08-17T22:00:15.490Z,99152.91
2022-08-17T22:05:28.263Z,99155.28
2022-08-17T22:10:51.500Z,99161.34
2022-08-17T22:16:28.770Z,99153.66
2022-08-17T22:21:30.866Z,99156.91
2022-08-17T22:27:03.598Z,99150.69
2022-08-17T22:32:05.320Z,99150.44
2022-08-17T22:37:27.565Z,99150.50
2022-08-17T22:42:29.455Z,99162.75
2022-08-17T22:47:38.907Z,99160.66
2022-08-17T22:53:03.276Z,99178.56
2022-08-17T22:58:35.803Z,99166.38
2022-08-17T23:03:54.461Z,99167.84
2022-08-17T23:08:56.693Z,99164.78
2022-08-17T23:13:58.355Z,99159.72
2022-08-17T23:19:00.013Z,99156.03
2022-08-17T23:24:02.267Z,99153.06
2022-08-17T23:29:09.030Z,99161.47
2022-08-17T23:34:14.040Z,99166.03
2022-08-17T23:39:15.678Z,99162.47
2022-08-17T23:44:27.727Z,99166.75
2022-08-17T23:49:31.768Z,99170.56
2022-08-17T23:54:43.618Z,99169.50
2022-08-17T23:59:45.917Z,99155.34
